sensor_id;sensor_type;location;lat;lon;timestamp;P1;durP1;ratioP1;P2;durP2;ratioP2
55300;SDS011;58302;51.446;-2.000;2024-02-16T00:02:11;4.50;;;3.17;;
55300;SDS011;58302;51.446;-2.000;2024-02-16T00:04:42;6.68;;;3.70;;
55300;SDS011;58302;51.446;-2.000;2024-02-16T00:07:09;4.90;;;3.70;;
55300;SDS011;58302;51.446;-2.000;2024-02-16T00:09:36;4.68;;;3.28;;
55300;SDS011;58302;51.446;-2.000;2024-02-16T00:12:03;7.03;;;4.75;;
55300;SDS011;58302;51.446;-2.000;2024-02-16T00:14:29;9.35;;;5.07;;
55300;SDS011;58302;51.446;-2.000;2024-02-16T00:16:56;9.15;;;6.13;;
55300;SDS011;58302;51.446;-2.000;2024-02-16T00:19:23;13.27;;;6.95;;
55300;SDS011;58302;51.446;-2.000;2024-02-16T00:21:50;10.68;;;7.63;;
55300;SDS011;58302;51.446;-2.000;2024-02-16T00:24:18;12.23;;;7.65;;
55300;SDS011;58302;51.446;-2.000;2024-02-16T00:26:45;12.20;;;8.05;;
55300;SDS011;58302;51.446;-2.000;2024-02-16T00:29:11;14.30;;;9.15;;
55300;SDS011;58302;51.446;-2.000;2024-02-16T00:31:38;14.85;;;9.07;;
55300;SDS011;58302;51.446;-2.000;2024-02-16T00:34:05;14.57;;;8.70;;
55300;SDS011;58302;51.446;-2.000;2024-02-16T00:36:31;13.38;;;8.73;;
55300;SDS011;58302;51.446;-2.000;2024-02-16T00:38:59;15.30;;;7.90;;
55300;SDS011;58302;51.446;-2.000;2024-02-16T00:41:27;13.63;;;8.55;;
55300;SDS011;58302;51.446;-2.000;2024-02-16T00:43:54;14.35;;;8.82;;
55300;SDS011;58302;51.446;-2.000;2024-02-16T00:46:22;15.38;;;8.80;;
55300;SDS011;58302;51.446;-2.000;2024-02-16T00:48:51;17.40;;;9.77;;
55300;SDS011;58302;51.446;-2.000;2024-02-16T00:51:18;14.80;;;7.97;;
55300;SDS011;58302;51.446;-2.000;2024-02-16T00:53:46;19.77;;;10.13;;
55300;SDS011;58302;51.446;-2.000;2024-02-16T00:56:14;18.30;;;10.10;;
55300;SDS011;58302;51.446;-2.000;2024-02-16T00:58:40;17.75;;;10.15;;
55300;SDS011;58302;51.446;-2.000;2024-02-16T01:01:08;18.00;;;10.40;;
55300;SDS011;58302;51.446;-2.000;2024-02-16T01:03:37;17.58;;;9.60;;
55300;SDS011;58302;51.446;-2.000;2024-02-16T01:06:06;17.65;;;9.88;;
55300;SDS011;58302;51.446;-2.000;2024-02-16T01:08:37;17.50;;;10.10;;
55300;SDS011;58302;51.446;-2.000;2024-02-16T01:11:03;18.48;;;10.13;;
55300;SDS011;58302;51.446;-2.000;2024-02-16T01:13:30;19.95;;;10.30;;
55300;SDS011;58302;51.446;-2.000;2024-02-16T01:15:56;17.08;;;8.88;;
55300;SDS011;58302;51.446;-2.000;2024-02-16T01:18:22;19.65;;;9.55;;
55300;SDS011;58302;51.446;-2.000;2024-02-16T01:20:49;19.40;;;10.30;;
55300;SDS011;58302;51.446;-2.000;2024-02-16T01:23:15;19.48;;;10.23;;
55300;SDS011;58302;51.446;-2.000;2024-02-16T01:25:42;19.10;;;10.98;;
55300;SDS011;58302;51.446;-2.000;2024-02-16T01:28:10;19.95;;;10.90;;
55300;SDS011;58302;51.446;-2.000;2024-02-16T01:30:39;21.05;;;10.48;;
55300;SDS011;58302;51.446;-2.000;2024-02-16T01:33:06;20.90;;;12.15;;
55300;SDS011;58302;51.446;-2.000;2024-02-16T01:35:35;22.02;;;11.40;;
55300;SDS011;58302;51.446;-2.000;2024-02-16T01:38:02;24.73;;;11.50;;
55300;SDS011;58302;51.446;-2.000;2024-02-16T01:40:28;20.35;;;11.35;;
55300;SDS011;58302;51.446;-2.000;2024-02-16T01:42:55;23.02;;;12.32;;
55300;SDS011;58302;51.446;-2.000;2024-02-16T01:45:30;23.77;;;11.40;;
55300;SDS011;58302;51.446;-2.000;2024-02-16T01:47:58;24.25;;;10.98;;
55300;SDS011;58302;51.446;-2.000;2024-02-16T01:50:25;22.02;;;11.32;;
55300;SDS011;58302;51.446;-2.000;2024-02-16T01:52:57;22.48;;;11.05;;
55300;SDS011;58302;51.446;-2.000;2024-02-16T01:55:27;22.20;;;10.20;;
55300;SDS011;58302;51.446;-2.000;2024-02-16T01:57:53;18.83;;;10.00;;
55300;SDS011;58302;51.446;-2.000;2024-02-16T02:00:24;25.05;;;11.52;;
55300;SDS011;58302;51.446;-2.000;2024-02-16T02:02:50;11.75;;;7.20;;
55300;SDS011;58302;51.446;-2.000;2024-02-16T02:05:16;13.25;;;7.13;;
55300;SDS011;58302;51.446;-2.000;2024-02-16T02:07:44;10.75;;;5.55;;
55300;SDS011;58302;51.446;-2.000;2024-02-16T02:10:12;10.90;;;5.10;;
55300;SDS011;58302;51.446;-2.000;2024-02-16T02:12:40;12.60;;;6.18;;
55300;SDS011;58302;51.446;-2.000;2024-02-16T02:15:08;10.00;;;5.93;;
55300;SDS011;58302;51.446;-2.000;2024-02-16T02:17:37;11.07;;;5.80;;
55300;SDS011;58302;51.446;-2.000;2024-02-16T02:20:05;10.02;;;6.00;;
55300;SDS011;58302;51.446;-2.000;2024-02-16T02:22:39;9.95;;;5.32;;
55300;SDS011;58302;51.446;-2.000;2024-02-16T02:25:06;10.38;;;4.82;;
55300;SDS011;58302;51.446;-2.000;2024-02-16T02:27:37;11.77;;;6.45;;
55300;SDS011;58302;51.446;-2.000;2024-02-16T02:30:04;6.63;;;3.95;;
55300;SDS011;58302;51.446;-2.000;2024-02-16T02:32:32;7.80;;;4.43;;
55300;SDS011;58302;51.446;-2.000;2024-02-16T02:34:58;11.57;;;5.70;;
55300;SDS011;58302;51.446;-2.000;2024-02-16T02:37:24;8.15;;;4.32;;
55300;SDS011;58302;51.446;-2.000;2024-02-16T02:39:50;10.95;;;4.70;;
55300;SDS011;58302;51.446;-2.000;2024-02-16T02:42:16;12.15;;;5.50;;
55300;SDS011;58302;51.446;-2.000;2024-02-16T02:44:42;5.60;;;3.40;;
55300;SDS011;58302;51.446;-2.000;2024-02-16T02:47:19;9.77;;;4.65;;
55300;SDS011;58302;51.446;-2.000;2024-02-16T02:49:45;10.82;;;4.95;;
55300;SDS011;58302;51.446;-2.000;2024-02-16T02:52:11;7.68;;;4.22;;
55300;SDS011;58302;51.446;-2.000;2024-02-16T02:54:38;6.40;;;3.85;;
55300;SDS011;58302;51.446;-2.000;2024-02-16T02:57:05;9.10;;;4.35;;
55300;SDS011;58302;51.446;-2.000;2024-02-16T02:59:31;6.88;;;3.78;;
55300;SDS011;58302;51.446;-2.000;2024-02-16T03:01:57;4.80;;;3.13;;
55300;SDS011;58302;51.446;-2.000;2024-02-16T03:04:23;6.70;;;4.13;;
55300;SDS011;58302;51.446;-2.000;2024-02-16T03:06:51;6.68;;;4.15;;
55300;SDS011;58302;51.446;-2.000;2024-02-16T03:09:18;7.63;;;3.83;;
55300;SDS011;58302;51.446;-2.000;2024-02-16T03:11:44;7.28;;;3.78;;
55300;SDS011;58302;51.446;-2.000;2024-02-16T03:14:10;7.63;;;4.20;;
55300;SDS011;58302;51.446;-2.000;2024-02-16T03:16:35;7.28;;;3.92;;
55300;SDS011;58302;51.446;-2.000;2024-02-16T03:19:01;8.88;;;4.18;;
55300;SDS011;58302;51.446;-2.000;2024-02-16T03:21:34;6.22;;;3.53;;
55300;SDS011;58302;51.446;-2.000;2024-02-16T03:24:01;11.77;;;4.05;;
55300;SDS011;58302;51.446;-2.000;2024-02-16T03:26:29;11.75;;;4.85;;
55300;SDS011;58302;51.446;-2.000;2024-02-16T03:28:55;13.20;;;5.47;;
55300;SDS011;58302;51.446;-2.000;2024-02-16T03:31:22;11.15;;;6.43;;
55300;SDS011;58302;51.446;-2.000;2024-02-16T03:33:49;13.88;;;7.00;;
55300;SDS011;58302;51.446;-2.000;2024-02-16T03:36:19;16.55;;;7.70;;
55300;SDS011;58302;51.446;-2.000;2024-02-16T03:38:45;16.65;;;6.38;;
55300;SDS011;58302;51.446;-2.000;2024-02-16T03:41:19;13.48;;;7.32;;
55300;SDS011;58302;51.446;-2.000;2024-02-16T03:43:46;15.77;;;6.97;;
55300;SDS011;58302;51.446;-2.000;2024-02-16T03:46:12;13.38;;;7.07;;
55300;SDS011;58302;51.446;-2.000;2024-02-16T03:48:38;12.80;;;7.10;;
55300;SDS011;58302;51.446;-2.000;2024-02-16T03:51:07;12.60;;;7.00;;
55300;SDS011;58302;51.446;-2.000;2024-02-16T03:53:35;15.60;;;6.93;;
55300;SDS011;58302;51.446;-2.000;2024-02-16T03:56:01;19.60;;;7.70;;
55300;SDS011;58302;51.446;-2.000;2024-02-16T03:58:27;23.55;;;7.45;;
55300;SDS011;58302;51.446;-2.000;2024-02-16T04:00:53;15.73;;;7.68;;
55300;SDS011;58302;51.446;-2.000;2024-02-16T04:03:19;15.68;;;6.55;;
55300;SDS011;58302;51.446;-2.000;2024-02-16T04:05:45;17.48;;;7.95;;
55300;SDS011;58302;51.446;-2.000;2024-02-16T04:08:11;11.15;;;6.60;;
55300;SDS011;58302;51.446;-2.000;2024-02-16T04:10:38;10.70;;;6.32;;
55300;SDS011;58302;51.446;-2.000;2024-02-16T04:13:04;14.20;;;6.60;;
55300;SDS011;58302;51.446;-2.000;2024-02-16T04:15:29;13.40;;;7.18;;
55300;SDS011;58302;51.446;-2.000;2024-02-16T04:17:56;12.48;;;6.40;;
55300;SDS011;58302;51.446;-2.000;2024-02-16T04:20:26;21.23;;;8.00;;
55300;SDS011;58302;51.446;-2.000;2024-02-16T04:22:52;13.95;;;7.20;;
55300;SDS011;58302;51.446;-2.000;2024-02-16T04:25:18;14.98;;;6.93;;
55300;SDS011;58302;51.446;-2.000;2024-02-16T04:27:44;17.45;;;8.13;;
55300;SDS011;58302;51.446;-2.000;2024-02-16T04:30:11;15.90;;;6.45;;
55300;SDS011;58302;51.446;-2.000;2024-02-16T04:32:38;14.38;;;7.45;;
55300;SDS011;58302;51.446;-2.000;2024-02-16T04:35:04;19.58;;;7.53;;
55300;SDS011;58302;51.446;-2.000;2024-02-16T04:37:30;18.17;;;7.70;;
55300;SDS011;58302;51.446;-2.000;2024-02-16T04:39:56;13.70;;;6.97;;
55300;SDS011;58302;51.446;-2.000;2024-02-16T04:42:22;33.35;;;9.85;;
55300;SDS011;58302;51.446;-2.000;2024-02-16T04:44:48;15.07;;;7.40;;
55300;SDS011;58302;51.446;-2.000;2024-02-16T04:47:14;14.20;;;7.32;;
55300;SDS011;58302;51.446;-2.000;2024-02-16T04:49:40;16.52;;;6.88;;
55300;SDS011;58302;51.446;-2.000;2024-02-16T04:52:06;18.60;;;6.65;;
55300;SDS011;58302;51.446;-2.000;2024-02-16T04:54:34;12.43;;;6.65;;
55300;SDS011;58302;51.446;-2.000;2024-02-16T04:57:01;12.82;;;7.07;;
55300;SDS011;58302;51.446;-2.000;2024-02-16T04:59:27;13.88;;;6.13;;
55300;SDS011;58302;51.446;-2.000;2024-02-16T05:01:53;13.88;;;6.75;;
55300;SDS011;58302;51.446;-2.000;2024-02-16T05:04:19;14.75;;;7.38;;
55300;SDS011;58302;51.446;-2.000;2024-02-16T05:06:45;21.52;;;6.65;;
55300;SDS011;58302;51.446;-2.000;2024-02-16T05:09:16;35.90;;;8.57;;
55300;SDS011;58302;51.446;-2.000;2024-02-16T05:11:43;24.08;;;7.47;;
55300;SDS011;58302;51.446;-2.000;2024-02-16T05:14:11;18.38;;;7.55;;
55300;SDS011;58302;51.446;-2.000;2024-02-16T05:16:49;16.08;;;7.18;;
55300;SDS011;58302;51.446;-2.000;2024-02-16T05:19:19;20.02;;;7.60;;
55300;SDS011;58302;51.446;-2.000;2024-02-16T05:21:46;15.23;;;6.68;;
55300;SDS011;58302;51.446;-2.000;2024-02-16T05:24:12;14.10;;;5.57;;
55300;SDS011;58302;51.446;-2.000;2024-02-16T05:26:38;14.80;;;6.55;;
55300;SDS011;58302;51.446;-2.000;2024-02-16T05:29:04;15.40;;;6.63;;
55300;SDS011;58302;51.446;-2.000;2024-02-16T05:31:30;18.85;;;6.25;;
55300;SDS011;58302;51.446;-2.000;2024-02-16T05:33:56;18.02;;;7.72;;
55300;SDS011;58302;51.446;-2.000;2024-02-16T05:36:23;18.42;;;8.32;;
55300;SDS011;58302;51.446;-2.000;2024-02-16T05:38:53;16.55;;;7.95;;
55300;SDS011;58302;51.446;-2.000;2024-02-16T05:41:31;26.48;;;10.00;;
55300;SDS011;58302;51.446;-2.000;2024-02-16T05:43:57;17.27;;;8.05;;
55300;SDS011;58302;51.446;-2.000;2024-02-16T05:46:23;15.07;;;8.23;;
55300;SDS011;58302;51.446;-2.000;2024-02-16T05:48:50;17.50;;;8.23;;
55300;SDS011;58302;51.446;-2.000;2024-02-16T05:51:16;22.25;;;8.80;;
55300;SDS011;58302;51.446;-2.000;2024-02-16T05:53:42;26.05;;;8.25;;
55300;SDS011;58302;51.446;-2.000;2024-02-16T05:56:08;32.50;;;8.40;;
55300;SDS011;58302;51.446;-2.000;2024-02-16T05:58:35;16.88;;;8.07;;
55300;SDS011;58302;51.446;-2.000;2024-02-16T06:01:01;17.35;;;6.53;;
55300;SDS011;58302;51.446;-2.000;2024-02-16T06:03:28;24.48;;;9.00;;
55300;SDS011;58302;51.446;-2.000;2024-02-16T06:05:54;20.55;;;6.55;;
55300;SDS011;58302;51.446;-2.000;2024-02-16T06:08:20;16.90;;;6.95;;
55300;SDS011;58302;51.446;-2.000;2024-02-16T06:10:46;19.30;;;7.13;;
55300;SDS011;58302;51.446;-2.000;2024-02-16T06:13:17;16.42;;;6.85;;
55300;SDS011;58302;51.446;-2.000;2024-02-16T06:15:45;19.50;;;6.20;;
55300;SDS011;58302;51.446;-2.000;2024-02-16T06:18:11;23.60;;;7.03;;
55300;SDS011;58302;51.446;-2.000;2024-02-16T06:20:40;13.20;;;6.15;;
55300;SDS011;58302;51.446;-2.000;2024-02-16T06:23:06;20.92;;;6.10;;
55300;SDS011;58302;51.446;-2.000;2024-02-16T06:25:34;24.83;;;7.57;;
55300;SDS011;58302;51.446;-2.000;2024-02-16T06:28:00;12.23;;;5.10;;
55300;SDS011;58302;51.446;-2.000;2024-02-16T06:30:26;12.52;;;5.95;;
55300;SDS011;58302;51.446;-2.000;2024-02-16T06:32:55;17.00;;;6.55;;
55300;SDS011;58302;51.446;-2.000;2024-02-16T06:35:21;14.02;;;4.70;;
55300;SDS011;58302;51.446;-2.000;2024-02-16T06:37:47;19.40;;;5.18;;
55300;SDS011;58302;51.446;-2.000;2024-02-16T06:40:13;19.75;;;5.97;;
55300;SDS011;58302;51.446;-2.000;2024-02-16T06:42:39;13.48;;;6.28;;
55300;SDS011;58302;51.446;-2.000;2024-02-16T06:45:05;15.80;;;6.88;;
55300;SDS011;58302;51.446;-2.000;2024-02-16T06:47:32;16.90;;;5.25;;
55300;SDS011;58302;51.446;-2.000;2024-02-16T06:50:01;22.52;;;7.03;;
55300;SDS011;58302;51.446;-2.000;2024-02-16T06:52:27;16.00;;;5.75;;
55300;SDS011;58302;51.446;-2.000;2024-02-16T06:54:53;15.95;;;6.53;;
55300;SDS011;58302;51.446;-2.000;2024-02-16T06:57:20;20.00;;;7.90;;
55300;SDS011;58302;51.446;-2.000;2024-02-16T06:59:46;25.13;;;6.82;;
55300;SDS011;58302;51.446;-2.000;2024-02-16T07:02:12;13.93;;;6.40;;
55300;SDS011;58302;51.446;-2.000;2024-02-16T07:04:41;15.77;;;6.63;;
55300;SDS011;58302;51.446;-2.000;2024-02-16T07:07:07;15.57;;;7.15;;
55300;SDS011;58302;51.446;-2.000;2024-02-16T07:09:33;26.30;;;9.75;;
55300;SDS011;58302;51.446;-2.000;2024-02-16T07:11:59;18.90;;;6.70;;
55300;SDS011;58302;51.446;-2.000;2024-02-16T07:14:26;18.85;;;6.95;;
55300;SDS011;58302;51.446;-2.000;2024-02-16T07:16:52;16.10;;;7.53;;
55300;SDS011;58302;51.446;-2.000;2024-02-16T07:19:18;15.20;;;6.10;;
55300;SDS011;58302;51.446;-2.000;2024-02-16T07:21:44;16.90;;;6.75;;
55300;SDS011;58302;51.446;-2.000;2024-02-16T07:24:13;10.63;;;6.68;;
55300;SDS011;58302;51.446;-2.000;2024-02-16T07:26:40;11.77;;;5.40;;
55300;SDS011;58302;51.446;-2.000;2024-02-16T07:29:07;15.35;;;5.85;;
55300;SDS011;58302;51.446;-2.000;2024-02-16T07:31:34;13.10;;;5.63;;
55300;SDS011;58302;51.446;-2.000;2024-02-16T07:34:03;23.02;;;6.40;;
55300;SDS011;58302;51.446;-2.000;2024-02-16T07:36:29;15.77;;;6.53;;
55300;SDS011;58302;51.446;-2.000;2024-02-16T07:38:55;17.60;;;6.43;;
55300;SDS011;58302;51.446;-2.000;2024-02-16T07:41:22;15.73;;;5.57;;
55300;SDS011;58302;51.446;-2.000;2024-02-16T07:43:48;12.05;;;5.50;;
55300;SDS011;58302;51.446;-2.000;2024-02-16T07:46:14;14.07;;;5.80;;
55300;SDS011;58302;51.446;-2.000;2024-02-16T07:48:40;11.27;;;5.50;;
55300;SDS011;58302;51.446;-2.000;2024-02-16T07:51:06;12.02;;;5.60;;
55300;SDS011;58302;51.446;-2.000;2024-02-16T07:53:33;12.75;;;5.15;;
55300;SDS011;58302;51.446;-2.000;2024-02-16T07:55:59;13.90;;;6.00;;
55300;SDS011;58302;51.446;-2.000;2024-02-16T07:58:25;16.35;;;6.60;;
55300;SDS011;58302;51.446;-2.000;2024-02-16T08:00:51;11.48;;;5.53;;
55300;SDS011;58302;51.446;-2.000;2024-02-16T08:03:22;10.13;;;4.75;;
55300;SDS011;58302;51.446;-2.000;2024-02-16T08:05:49;10.07;;;5.65;;
55300;SDS011;58302;51.446;-2.000;2024-02-16T08:08:15;8.75;;;3.90;;
55300;SDS011;58302;51.446;-2.000;2024-02-16T08:10:41;32.72;;;6.10;;
55300;SDS011;58302;51.446;-2.000;2024-02-16T08:13:07;7.93;;;3.92;;
55300;SDS011;58302;51.446;-2.000;2024-02-16T08:15:34;14.52;;;4.85;;
55300;SDS011;58302;51.446;-2.000;2024-02-16T08:18:00;6.68;;;4.00;;
55300;SDS011;58302;51.446;-2.000;2024-02-16T08:20:29;15.45;;;4.13;;
55300;SDS011;58302;51.446;-2.000;2024-02-16T08:22:55;7.03;;;3.67;;
55300;SDS011;58302;51.446;-2.000;2024-02-16T08:25:21;10.10;;;2.83;;
55300;SDS011;58302;51.446;-2.000;2024-02-16T08:27:48;9.48;;;3.17;;
55300;SDS011;58302;51.446;-2.000;2024-02-16T08:30:15;8.18;;;2.75;;
55300;SDS011;58302;51.446;-2.000;2024-02-16T08:32:40;6.25;;;3.00;;
55300;SDS011;58302;51.446;-2.000;2024-02-16T08:35:07;5.32;;;2.90;;
55300;SDS011;58302;51.446;-2.000;2024-02-16T08:37:33;4.90;;;2.05;;
55300;SDS011;58302;51.446;-2.000;2024-02-16T08:39:59;10.88;;;4.53;;
55300;SDS011;58302;51.446;-2.000;2024-02-16T08:42:27;6.15;;;2.05;;
55300;SDS011;58302;51.446;-2.000;2024-02-16T08:44:53;9.63;;;2.78;;
55300;SDS011;58302;51.446;-2.000;2024-02-16T08:47:18;6.13;;;2.50;;
55300;SDS011;58302;51.446;-2.000;2024-02-16T08:49:45;5.50;;;2.53;;
55300;SDS011;58302;51.446;-2.000;2024-02-16T08:52:11;8.77;;;3.53;;
55300;SDS011;58302;51.446;-2.000;2024-02-16T08:54:37;6.07;;;2.90;;
55300;SDS011;58302;51.446;-2.000;2024-02-16T08:57:03;7.57;;;2.90;;
55300;SDS011;58302;51.446;-2.000;2024-02-16T08:59:29;4.78;;;2.78;;
55300;SDS011;58302;51.446;-2.000;2024-02-16T09:01:55;10.00;;;3.17;;
55300;SDS011;58302;51.446;-2.000;2024-02-16T09:04:24;7.90;;;3.10;;
55300;SDS011;58302;51.446;-2.000;2024-02-16T09:06:50;7.43;;;3.08;;
55300;SDS011;58302;51.446;-2.000;2024-02-16T09:09:16;5.72;;;2.38;;
55300;SDS011;58302;51.446;-2.000;2024-02-16T09:11:42;6.43;;;2.72;;
55300;SDS011;58302;51.446;-2.000;2024-02-16T09:14:08;2.95;;;2.05;;
55300;SDS011;58302;51.446;-2.000;2024-02-16T09:16:34;6.38;;;2.80;;
55300;SDS011;58302;51.446;-2.000;2024-02-16T09:19:01;2.83;;;1.92;;
55300;SDS011;58302;51.446;-2.000;2024-02-16T09:21:27;8.20;;;2.13;;
55300;SDS011;58302;51.446;-2.000;2024-02-16T09:23:55;2.72;;;2.10;;
55300;SDS011;58302;51.446;-2.000;2024-02-16T09:26:27;4.57;;;2.67;;
55300;SDS011;58302;51.446;-2.000;2024-02-16T09:28:58;6.55;;;3.25;;
55300;SDS011;58302;51.446;-2.000;2024-02-16T09:31:24;9.93;;;3.13;;
55300;SDS011;58302;51.446;-2.000;2024-02-16T09:33:50;3.20;;;2.25;;
55300;SDS011;58302;51.446;-2.000;2024-02-16T09:36:17;9.32;;;2.53;;
55300;SDS011;58302;51.446;-2.000;2024-02-16T09:38:43;5.82;;;2.40;;
55300;SDS011;58302;51.446;-2.000;2024-02-16T09:41:09;6.45;;;2.72;;
55300;SDS011;58302;51.446;-2.000;2024-02-16T09:43:35;6.60;;;2.53;;
55300;SDS011;58302;51.446;-2.000;2024-02-16T09:46:07;13.90;;;2.78;;
55300;SDS011;58302;51.446;-2.000;2024-02-16T09:48:35;7.18;;;1.90;;
55300;SDS011;58302;51.446;-2.000;2024-02-16T09:51:01;5.28;;;1.70;;
55300;SDS011;58302;51.446;-2.000;2024-02-16T09:53:28;2.40;;;1.52;;
55300;SDS011;58302;51.446;-2.000;2024-02-16T09:55:58;7.68;;;2.47;;
55300;SDS011;58302;51.446;-2.000;2024-02-16T09:58:24;5.15;;;2.05;;
55300;SDS011;58302;51.446;-2.000;2024-02-16T10:00:50;4.03;;;2.03;;
55300;SDS011;58302;51.446;-2.000;2024-02-16T10:03:23;4.97;;;1.58;;
55300;SDS011;58302;51.446;-2.000;2024-02-16T10:05:50;6.45;;;1.92;;
55300;SDS011;58302;51.446;-2.000;2024-02-16T10:08:18;4.95;;;1.40;;
55300;SDS011;58302;51.446;-2.000;2024-02-16T10:10:45;8.90;;;1.70;;
55300;SDS011;58302;51.446;-2.000;2024-02-16T10:13:11;2.72;;;1.35;;
55300;SDS011;58302;51.446;-2.000;2024-02-16T10:15:38;5.72;;;1.23;;
55300;SDS011;58302;51.446;-2.000;2024-02-16T10:18:04;3.05;;;1.40;;
55300;SDS011;58302;51.446;-2.000;2024-02-16T10:20:34;6.13;;;1.95;;
55300;SDS011;58302;51.446;-2.000;2024-02-16T10:25:35;5.05;;;1.33;;
55300;SDS011;58302;51.446;-2.000;2024-02-16T10:28:06;3.88;;;1.50;;
55300;SDS011;58302;51.446;-2.000;2024-02-16T10:30:34;6.10;;;1.60;;
55300;SDS011;58302;51.446;-2.000;2024-02-16T10:33:06;5.07;;;1.50;;
55300;SDS011;58302;51.446;-2.000;2024-02-16T10:35:38;3.90;;;1.17;;
55300;SDS011;58302;51.446;-2.000;2024-02-16T10:38:05;6.60;;;1.27;;
55300;SDS011;58302;51.446;-2.000;2024-02-16T10:40:39;7.15;;;2.33;;
55300;SDS011;58302;51.446;-2.000;2024-02-16T10:43:06;5.88;;;1.30;;
55300;SDS011;58302;51.446;-2.000;2024-02-16T10:45:34;7.50;;;3.13;;
55300;SDS011;58302;51.446;-2.000;2024-02-16T10:48:07;3.67;;;1.55;;
55300;SDS011;58302;51.446;-2.000;2024-02-16T10:50:34;1.83;;;1.45;;
55300;SDS011;58302;51.446;-2.000;2024-02-16T10:53:06;2.67;;;1.55;;
55300;SDS011;58302;51.446;-2.000;2024-02-16T10:55:46;5.68;;;1.50;;
55300;SDS011;58302;51.446;-2.000;2024-02-16T10:58:16;6.68;;;1.52;;
55300;SDS011;58302;51.446;-2.000;2024-02-16T11:00:49;3.50;;;0.90;;
55300;SDS011;58302;51.446;-2.000;2024-02-16T11:03:17;4.38;;;1.33;;
55300;SDS011;58302;51.446;-2.000;2024-02-16T11:05:43;3.50;;;1.52;;
55300;SDS011;58302;51.446;-2.000;2024-02-16T11:08:13;4.00;;;0.90;;
55300;SDS011;58302;51.446;-2.000;2024-02-16T11:10:41;1.73;;;1.13;;
55300;SDS011;58302;51.446;-2.000;2024-02-16T11:13:22;1.67;;;0.77;;
55300;SDS011;58302;51.446;-2.000;2024-02-16T11:15:58;3.77;;;1.03;;
55300;SDS011;58302;51.446;-2.000;2024-02-16T11:18:27;1.70;;;1.25;;
55300;SDS011;58302;51.446;-2.000;2024-02-16T11:20:54;4.40;;;0.70;;
55300;SDS011;58302;51.446;-2.000;2024-02-16T11:23:27;3.58;;;0.77;;
55300;SDS011;58302;51.446;-2.000;2024-02-16T11:26:03;3.28;;;0.85;;
55300;SDS011;58302;51.446;-2.000;2024-02-16T11:28:34;1.60;;;0.30;;
55300;SDS011;58302;51.446;-2.000;2024-02-16T11:31:01;3.60;;;1.52;;
55300;SDS011;58302;51.446;-2.000;2024-02-16T11:33:28;0.65;;;0.55;;
55300;SDS011;58302;51.446;-2.000;2024-02-16T11:35:58;2.92;;;1.13;;
55300;SDS011;58302;51.446;-2.000;2024-02-16T11:38:34;3.60;;;1.23;;
55300;SDS011;58302;51.446;-2.000;2024-02-16T11:41:04;1.83;;;1.42;;
55300;SDS011;58302;51.446;-2.000;2024-02-16T11:43:33;3.20;;;1.02;;
55300;SDS011;58302;51.446;-2.000;2024-02-16T11:46:10;6.45;;;1.85;;
55300;SDS011;58302;51.446;-2.000;2024-02-16T11:48:38;2.90;;;1.00;;
55300;SDS011;58302;51.446;-2.000;2024-02-16T11:51:04;5.28;;;1.38;;
55300;SDS011;58302;51.446;-2.000;2024-02-16T11:53:31;4.15;;;1.33;;
55300;SDS011;58302;51.446;-2.000;2024-02-16T11:55:58;1.30;;;1.20;;
55300;SDS011;58302;51.446;-2.000;2024-02-16T11:58:25;3.38;;;1.50;;
55300;SDS011;58302;51.446;-2.000;2024-02-16T12:00:52;1.20;;;0.90;;
55300;SDS011;58302;51.446;-2.000;2024-02-16T12:03:21;3.63;;;1.52;;
55300;SDS011;58302;51.446;-2.000;2024-02-16T12:05:54;7.45;;;1.52;;
55300;SDS011;58302;51.446;-2.000;2024-02-16T12:08:23;2.78;;;1.10;;
55300;SDS011;58302;51.446;-2.000;2024-02-16T12:10:50;5.88;;;1.40;;
55300;SDS011;58302;51.446;-2.000;2024-02-16T12:13:17;3.75;;;1.40;;
55300;SDS011;58302;51.446;-2.000;2024-02-16T12:15:49;2.10;;;1.50;;
55300;SDS011;58302;51.446;-2.000;2024-02-16T12:18:23;2.88;;;0.98;;
55300;SDS011;58302;51.446;-2.000;2024-02-16T12:21:01;4.38;;;1.17;;
55300;SDS011;58302;51.446;-2.000;2024-02-16T12:23:29;4.05;;;1.70;;
55300;SDS011;58302;51.446;-2.000;2024-02-16T12:26:01;3.08;;;1.65;;
55300;SDS011;58302;51.446;-2.000;2024-02-16T12:28:29;3.90;;;1.67;;
55300;SDS011;58302;51.446;-2.000;2024-02-16T12:30:58;6.97;;;2.40;;
55300;SDS011;58302;51.446;-2.000;2024-02-16T12:33:24;8.23;;;2.25;;
55300;SDS011;58302;51.446;-2.000;2024-02-16T12:35:53;6.13;;;1.50;;
55300;SDS011;58302;51.446;-2.000;2024-02-16T12:38:19;5.68;;;0.95;;
55300;SDS011;58302;51.446;-2.000;2024-02-16T12:40:47;5.28;;;1.40;;
55300;SDS011;58302;51.446;-2.000;2024-02-16T12:43:13;3.08;;;0.93;;
55300;SDS011;58302;51.446;-2.000;2024-02-16T12:45:42;3.22;;;1.00;;
55300;SDS011;58302;51.446;-2.000;2024-02-16T12:48:09;3.22;;;1.55;;
55300;SDS011;58302;51.446;-2.000;2024-02-16T12:50:35;2.78;;;1.00;;
55300;SDS011;58302;51.446;-2.000;2024-02-16T12:53:03;5.25;;;1.33;;
55300;SDS011;58302;51.446;-2.000;2024-02-16T12:55:29;3.42;;;1.00;;
55300;SDS011;58302;51.446;-2.000;2024-02-16T12:57:56;4.65;;;1.23;;
55300;SDS011;58302;51.446;-2.000;2024-02-16T13:00:23;3.55;;;1.00;;
55300;SDS011;58302;51.446;-2.000;2024-02-16T13:02:50;3.65;;;1.17;;
55300;SDS011;58302;51.446;-2.000;2024-02-16T13:05:16;4.43;;;1.83;;
55300;SDS011;58302;51.446;-2.000;2024-02-16T13:07:42;3.90;;;1.65;;
55300;SDS011;58302;51.446;-2.000;2024-02-16T13:10:08;3.28;;;1.08;;
55300;SDS011;58302;51.446;-2.000;2024-02-16T13:12:34;3.92;;;1.23;;
55300;SDS011;58302;51.446;-2.000;2024-02-16T13:15:04;7.55;;;1.70;;
55300;SDS011;58302;51.446;-2.000;2024-02-16T13:17:32;3.58;;;1.45;;
55300;SDS011;58302;51.446;-2.000;2024-02-16T13:19:58;7.15;;;1.42;;
55300;SDS011;58302;51.446;-2.000;2024-02-16T13:22:35;2.65;;;1.27;;
55300;SDS011;58302;51.446;-2.000;2024-02-16T13:25:05;2.10;;;0.73;;
55300;SDS011;58302;51.446;-2.000;2024-02-16T13:27:32;7.78;;;1.67;;
55300;SDS011;58302;51.446;-2.000;2024-02-16T13:29:59;5.15;;;1.80;;
55300;SDS011;58302;51.446;-2.000;2024-02-16T13:32:26;3.67;;;1.65;;
55300;SDS011;58302;51.446;-2.000;2024-02-16T13:34:52;3.50;;;1.40;;
55300;SDS011;58302;51.446;-2.000;2024-02-16T13:37:18;6.28;;;1.70;;
55300;SDS011;58302;51.446;-2.000;2024-02-16T13:39:44;3.20;;;1.20;;
55300;SDS011;58302;51.446;-2.000;2024-02-16T13:42:13;1.20;;;0.52;;
55300;SDS011;58302;51.446;-2.000;2024-02-16T13:44:39;2.95;;;1.73;;
55300;SDS011;58302;51.446;-2.000;2024-02-16T13:47:05;2.03;;;1.17;;
55300;SDS011;58302;51.446;-2.000;2024-02-16T13:49:31;5.15;;;1.52;;
55300;SDS011;58302;51.446;-2.000;2024-02-16T13:51:59;4.45;;;1.02;;
55300;SDS011;58302;51.446;-2.000;2024-02-16T13:54:27;3.90;;;1.05;;
55300;SDS011;58302;51.446;-2.000;2024-02-16T13:56:53;2.33;;;0.80;;
55300;SDS011;58302;51.446;-2.000;2024-02-16T13:59:19;1.55;;;1.20;;
55300;SDS011;58302;51.446;-2.000;2024-02-16T14:01:46;1.52;;;0.98;;
55300;SDS011;58302;51.446;-2.000;2024-02-16T14:04:18;2.60;;;0.75;;
55300;SDS011;58302;51.446;-2.000;2024-02-16T14:06:45;11.07;;;1.85;;
55300;SDS011;58302;51.446;-2.000;2024-02-16T14:09:15;2.90;;;1.50;;
55300;SDS011;58302;51.446;-2.000;2024-02-16T14:11:42;4.60;;;1.40;;
55300;SDS011;58302;51.446;-2.000;2024-02-16T14:14:11;4.75;;;1.33;;
55300;SDS011;58302;51.446;-2.000;2024-02-16T14:16:37;3.85;;;1.52;;
55300;SDS011;58302;51.446;-2.000;2024-02-16T14:19:03;7.13;;;1.40;;
55300;SDS011;58302;51.446;-2.000;2024-02-16T14:21:29;4.07;;;1.65;;
55300;SDS011;58302;51.446;-2.000;2024-02-16T14:23:55;2.75;;;1.00;;
55300;SDS011;58302;51.446;-2.000;2024-02-16T14:26:21;5.95;;;1.65;;
55300;SDS011;58302;51.446;-2.000;2024-02-16T14:28:47;2.92;;;1.10;;
55300;SDS011;58302;51.446;-2.000;2024-02-16T14:31:13;1.80;;;0.77;;